createdAt,value
2017-05-16T00:00:20.792Z,12.78
2017-05-16T00:01:36.151Z,12.68
2017-05-16T00:02:48.776Z,12.63
2017-05-16T00:04:04.427Z,12.64
2017-05-16T00:05:19.391Z,12.57
2017-05-16T00:06:34.810Z,12.56
2017-05-16T00:07:49.137Z,12.52
2017-05-16T00:09:04.819Z,12.57
2017-05-16T00:10:20.151Z,12.57
2017-05-16T00:11:33.033Z,12.57
2017-05-16T00:12:45.704Z,12.59
2017-05-16T00:14:00.000Z,12.5
2017-05-16T00:15:15.366Z,12.5
2017-05-16T00:16:30.721Z,12.48
2017-05-16T00:17:46.059Z,12.48
2017-05-16T00:19:01.590Z,12.38
2017-05-16T00:20:16.937Z,12.47
2017-05-16T00:21:32.501Z,12.38
2017-05-16T00:22:47.950Z,12.37
2017-05-16T00:24:03.521Z,12.42
2017-05-16T00:25:18.859Z,12.41
2017-05-16T00:26:34.207Z,12.45
2017-05-16T00:27:48.549Z,12.39
2017-05-16T00:29:02.926Z,12.44
2017-05-16T00:30:18.283Z,12.45
2017-05-16T00:31:32.324Z,12.56
2017-05-16T00:32:46.386Z,12.57
2017-05-16T00:34:00.643Z,12.63
2017-05-16T00:35:14.688Z,12.55
2017-05-16T00:36:30.376Z,12.56
2017-05-16T00:37:43.137Z,12.56
2017-05-16T00:38:58.674Z,12.53
2017-05-16T00:40:13.997Z,12.47
2017-05-16T00:41:27.911Z,12.45
2017-05-16T00:42:43.264Z,12.39
2017-05-16T00:43:58.847Z,12.37
2017-05-16T00:45:14.240Z,12.41
2017-05-16T00:46:28.282Z,12.37
2017-05-16T00:47:43.687Z,12.32
2017-05-16T00:48:59.239Z,12.31
2017-05-16T00:50:13.282Z,12.31
2017-05-16T00:51:27.331Z,12.24
2017-05-16T00:52:42.802Z,12.13
2017-05-16T00:53:58.141Z,12.23
2017-05-16T00:55:13.691Z,12.16
2017-05-16T00:56:29.104Z,12.19
2017-05-16T00:57:43.192Z,12.08
2017-05-16T00:58:58.581Z,12.13
2017-05-16T01:00:14.129Z,12.04
2017-05-16T01:01:28.253Z,12.07
2017-05-16T01:02:43.601Z,12.07
2017-05-16T01:03:58.946Z,11.98
2017-05-16T01:05:13.209Z,11.89
2017-05-16T01:06:28.570Z,11.91
2017-05-16T01:07:43.901Z,11.83
2017-05-16T01:08:55.231Z,11.89
2017-05-16T01:10:08.051Z,11.83
2017-05-16T01:11:23.419Z,11.84
2017-05-16T01:12:38.763Z,11.83
2017-05-16T01:13:54.186Z,11.83
2017-05-16T01:15:08.516Z,11.94
2017-05-16T01:16:21.367Z,11.87
2017-05-16T01:17:36.753Z,11.91
2017-05-16T01:18:52.119Z,11.9
2017-05-16T01:20:06.356Z,11.84
2017-05-16T01:21:20.407Z,11.89
2017-05-16T01:22:34.458Z,11.82
2017-05-16T01:23:48.532Z,11.84
2017-05-16T01:25:03.914Z,11.79
2017-05-16T01:26:18.240Z,11.76
2017-05-16T01:27:32.305Z,11.79
2017-05-16T01:28:46.353Z,11.76
2017-05-16T01:30:01.700Z,11.79
2017-05-16T01:31:14.673Z,11.74
2017-05-16T01:32:30.065Z,11.71
2017-05-16T01:33:45.549Z,11.74
2017-05-16T01:35:00.521Z,11.79
2017-05-16T01:36:14.840Z,11.83
2017-05-16T01:37:26.178Z,11.74
2017-05-16T01:38:41.524Z,11.71
2017-05-16T01:39:54.144Z,11.82
2017-05-16T01:41:09.342Z,11.8
2017-05-16T01:42:24.719Z,11.71
2017-05-16T01:43:40.151Z,11.66
2017-05-16T01:44:54.268Z,11.71
2017-05-16T01:46:09.857Z,11.61
2017-05-16T01:47:25.406Z,11.62
2017-05-16T01:48:39.458Z,11.64
2017-05-16T01:49:53.514Z,11.64
2017-05-16T01:51:08.837Z,11.64
2017-05-16T01:52:24.425Z,11.59
2017-05-16T01:53:39.794Z,11.69
2017-05-16T01:54:55.348Z,11.68
2017-05-16T01:56:10.714Z,11.65
2017-05-16T01:57:26.243Z,11.66
2017-05-16T01:58:41.621Z,11.69
2017-05-16T01:59:55.686Z,11.58
2017-05-16T02:01:08.314Z,11.66
2017-05-16T02:02:23.918Z,11.68
2017-05-16T02:03:39.307Z,11.68
2017-05-16T02:04:54.783Z,11.68
2017-05-16T02:06:09.162Z,11.68
2017-05-16T02:07:23.421Z,11.71
2017-05-16T02:08:37.341Z,11.69
2017-05-16T02:09:51.278Z,11.65
2017-05-16T02:11:05.340Z,11.72
2017-05-16T02:12:20.881Z,11.65
2017-05-16T02:13:36.216Z,11.62
2017-05-16T02:14:50.262Z,11.57
2017-05-16T02:16:05.640Z,11.61
2017-05-16T02:17:21.174Z,11.64
2017-05-16T02:18:35.208Z,11.58
2017-05-16T02:19:49.282Z,11.68
2017-05-16T02:21:04.617Z,11.79
2017-05-16T02:22:20.206Z,11.72
2017-05-16T02:23:34.479Z,11.8
2017-05-16T02:24:49.819Z,11.91
2017-05-16T02:26:02.439Z,11.9
2017-05-16T02:27:16.487Z,11.89
2017-05-16T02:28:32.056Z,11.95
2017-05-16T02:29:47.387Z,12.04
2017-05-16T02:31:00.167Z,12.08
2017-05-16T02:32:15.518Z,12.01
2017-05-16T02:33:29.759Z,12.07
2017-05-16T02:34:45.087Z,12.08
2017-05-16T02:36:00.586Z,12.11
2017-05-16T02:37:14.669Z,12.08
2017-05-16T02:38:28.845Z,12.07
2017-05-16T02:39:44.205Z,12.08
2017-05-16T02:40:58.352Z,12.13
2017-05-16T02:42:12.403Z,12.08
2017-05-16T02:43:26.646Z,12.17
2017-05-16T02:44:42.001Z,12.07
2017-05-16T02:45:56.983Z,12.08
2017-05-16T02:47:12.412Z,12.09
2017-05-16T02:48:27.937Z,12.02
2017-05-16T02:49:43.272Z,12.04
2017-05-16T02:50:58.645Z,12.07
2017-05-16T02:52:12.720Z,12.05
2017-05-16T02:53:28.335Z,12.08
2017-05-16T02:54:43.682Z,12.13
2017-05-16T02:56:29.784Z,12.09
2017-05-16T02:57:43.778Z,12.11
2017-05-16T02:58:58.031Z,12.09
2017-05-16T03:00:11.976Z,12.09
2017-05-16T03:01:26.100Z,12.09
2017-05-16T03:02:40.361Z,12.05
2017-05-16T03:03:55.963Z,11.99
2017-05-16T03:05:09.660Z,11.95
2017-05-16T03:06:24.989Z,11.9
2017-05-16T03:07:40.346Z,11.9
2017-05-16T03:08:55.895Z,11.95
2017-05-16T03:10:09.976Z,11.91
2017-05-16T03:11:22.736Z,11.89
2017-05-16T03:12:38.085Z,11.91
2017-05-16T03:13:52.388Z,11.91
2017-05-16T03:15:06.797Z,11.97
2017-05-16T03:16:21.011Z,11.99
2017-05-16T03:17:36.440Z,11.94
2017-05-16T03:18:51.796Z,11.97
2017-05-16T03:20:07.378Z,11.99
2017-05-16T03:21:22.707Z,11.98
2017-05-16T03:22:38.035Z,12.05
2017-05-16T03:23:50.785Z,12.08
2017-05-16T03:25:06.319Z,12.04
2017-05-16T03:26:20.376Z,11.98
2017-05-16T03:27:35.725Z,12.07
2017-05-16T03:28:49.797Z,12.07
2017-05-16T03:30:04.048Z,12.11
2017-05-16T03:31:19.481Z,12.07
2017-05-16T03:32:34.856Z,12.04
2017-05-16T03:33:48.951Z,12.01
2017-05-16T03:35:04.571Z,12.07
2017-05-16T03:36:18.491Z,11.99
2017-05-16T03:37:33.855Z,11.95
2017-05-16T03:38:49.219Z,11.91
2017-05-16T03:40:04.751Z,12.01
2017-05-16T03:41:17.536Z,11.89
2017-05-16T03:42:31.595Z,11.9
2017-05-16T03:43:44.360Z,11.86
2017-05-16T03:44:59.798Z,11.91
2017-05-16T03:46:15.344Z,11.89
2017-05-16T03:47:30.709Z,11.89
2017-05-16T03:48:46.056Z,11.89
2017-05-16T03:50:01.439Z,11.87
2017-05-16T03:51:16.997Z,11.86
2017-05-16T03:52:31.107Z,11.9
2017-05-16T03:53:46.488Z,11.79
2017-05-16T03:55:01.823Z,11.74
2017-05-16T03:56:17.395Z,11.76
2017-05-16T03:57:32.815Z,11.74
2017-05-16T03:58:46.924Z,11.76
2017-05-16T04:00:01.327Z,11.72
2017-05-16T04:01:15.588Z,11.77
2017-05-16T04:02:31.116Z,11.9
2017-05-16T04:03:46.487Z,11.89
2017-05-16T04:05:01.867Z,11.87
2017-05-16T04:06:16.062Z,11.89
2017-05-16T04:07:31.600Z,11.91
2017-05-16T04:08:46.942Z,11.89
2017-05-16T04:10:02.290Z,11.89
2017-05-16T04:11:17.823Z,11.95
2017-05-16T04:12:31.892Z,12.05
2017-05-16T04:13:45.981Z,12.01
2017-05-16T04:15:01.355Z,12.07
2017-05-16T04:16:14.464Z,12.09
2017-05-16T04:17:28.433Z,12.05
2017-05-16T04:18:43.775Z,12.07
2017-05-16T04:19:57.900Z,12.13
2017-05-16T04:21:11.952Z,12.07
2017-05-16T04:22:27.580Z,12.13
2017-05-16T04:23:42.990Z,12.22
2017-05-16T04:24:58.321Z,12.13
2017-05-16T04:26:13.671Z,12.22
2017-05-16T04:27:29.250Z,12.22
2017-05-16T04:28:42.016Z,12.24
2017-05-16T04:29:57.490Z,12.22
2017-05-16T04:31:11.534Z,12.19
2017-05-16T04:32:27.115Z,12.15
2017-05-16T04:34:10.595Z,12.11
2017-05-16T04:35:25.977Z,12.17
2017-05-16T04:36:41.538Z,12.2
2017-05-16T04:37:56.888Z,12.23
2017-05-16T04:39:12.250Z,12.27
2017-05-16T04:40:27.591Z,12.24
2017-05-16T04:41:43.234Z,12.2
2017-05-16T04:42:58.793Z,12.11
2017-05-16T04:44:14.296Z,12.24
2017-05-16T04:45:29.664Z,12.24
2017-05-16T04:46:43.955Z,12.38
2017-05-16T04:47:59.357Z,12.37
2017-05-16T04:49:13.529Z,12.41
2017-05-16T04:50:28.866Z,12.53
2017-05-16T04:51:45.651Z,12.55
2017-05-16T04:52:59.751Z,12.59
2017-05-16T04:54:15.140Z,12.59
2017-05-16T04:55:29.180Z,12.52
2017-05-16T04:56:43.494Z,12.59
2017-05-16T04:57:58.883Z,12.71
2017-05-16T04:59:14.230Z,12.7
2017-05-16T05:00:29.578Z,12.68
2017-05-16T05:01:44.774Z,12.66
2017-05-16T05:03:00.159Z,12.82
2017-05-16T05:04:15.750Z,12.84
2017-05-16T05:05:29.818Z,12.92
2017-05-16T05:06:43.940Z,12.89
2017-05-16T05:07:58.256Z,12.89
2017-05-16T05:09:13.575Z,12.84
2017-05-16T05:10:27.676Z,12.81
2017-05-16T05:11:41.946Z,12.82
2017-05-16T05:12:56.275Z,12.81
2017-05-16T05:14:11.862Z,12.84
2017-05-16T05:15:27.286Z,12.93
2017-05-16T05:16:42.648Z,13.11
2017-05-16T05:17:58.228Z,12.97
2017-05-16T05:19:13.236Z,13.09
2017-05-16T05:20:27.296Z,13.13
2017-05-16T05:21:40.089Z,13.26
2017-05-16T05:22:55.647Z,13.31
2017-05-16T05:24:11.030Z,13.45
2017-05-16T05:25:26.375Z,13.4
2017-05-16T05:26:41.831Z,13.55
2017-05-16T05:27:56.140Z,13.56
2017-05-16T05:29:10.263Z,13.54
2017-05-16T05:30:25.656Z,13.63
2017-05-16T05:31:41.004Z,13.74
2017-05-16T05:32:56.582Z,13.69
2017-05-16T05:34:11.921Z,13.71
2017-05-16T05:35:25.987Z,13.74
2017-05-16T05:36:40.024Z,13.7
2017-05-16T05:37:54.273Z,13.69
2017-05-16T05:39:09.644Z,13.66
2017-05-16T05:40:24.982Z,13.63
2017-05-16T05:41:38.895Z,13.61
2017-05-16T05:42:54.283Z,13.59
2017-05-16T05:44:07.489Z,13.58
2017-05-16T05:45:21.679Z,13.67
2017-05-16T05:46:37.303Z,13.7
2017-05-16T05:47:50.097Z,13.63
2017-05-16T05:49:04.380Z,13.73
2017-05-16T05:50:18.423Z,13.74
2017-05-16T05:51:33.827Z,13.82
2017-05-16T05:52:47.960Z,13.92
2017-05-16T05:54:03.531Z,14.02
2017-05-16T05:55:18.888Z,14.02
2017-05-16T05:56:34.227Z,13.99
2017-05-16T05:57:48.325Z,14.06
2017-05-16T05:59:03.930Z,14.14
2017-05-16T06:00:19.303Z,14.09
2017-05-16T06:01:34.657Z,14.14
2017-05-16T06:02:50.022Z,14.1
2017-05-16T06:04:05.709Z,14.13
2017-05-16T06:05:19.759Z,14.14
2017-05-16T06:06:33.814Z,14.21
2017-05-16T06:07:47.864Z,14.24
2017-05-16T06:09:03.414Z,14.24
2017-05-16T06:10:19.018Z,14.18
2017-05-16T06:11:34.366Z,14.19
2017-05-16T06:12:48.412Z,14.37
2017-05-16T06:14:02.455Z,14.39
2017-05-16T06:15:16.765Z,14.43
2017-05-16T06:16:30.700Z,14.45
2017-05-16T06:17:43.322Z,14.54
2017-05-16T06:18:57.401Z,14.54
2017-05-16T06:20:11.675Z,14.56
2017-05-16T06:21:27.181Z,14.6
2017-05-16T06:22:42.873Z,14.67
2017-05-16T06:23:56.927Z,14.7
2017-05-16T06:25:12.534Z,14.77
2017-05-16T06:26:28.061Z,14.84
2017-05-16T06:27:43.479Z,14.9
2017-05-16T06:28:57.598Z,14.95
2017-05-16T06:30:13.155Z,14.95
2017-05-16T06:31:27.215Z,15.02
2017-05-16T06:32:41.142Z,15.13
2017-05-16T06:33:53.835Z,15.08
2017-05-16T06:35:09.267Z,15.09
2017-05-16T06:36:23.836Z,15.21
2017-05-16T06:37:39.168Z,15.25
2017-05-16T06:38:54.546Z,15.2
2017-05-16T06:40:08.541Z,15.17
2017-05-16T06:41:24.189Z,15.24
2017-05-16T06:42:39.526Z,15.3
2017-05-16T06:43:53.626Z,15.35
2017-05-16T06:45:07.801Z,15.36
2017-05-16T06:46:22.107Z,15.35
2017-05-16T06:47:36.045Z,15.43
2017-05-16T06:48:51.400Z,15.43
2017-05-16T06:50:06.763Z,15.43
2017-05-16T06:51:22.155Z,15.51
2017-05-16T06:52:37.771Z,15.54
2017-05-16T06:53:51.848Z,15.53
2017-05-16T06:55:07.178Z,15.48
2017-05-16T06:56:21.353Z,15.53
2017-05-16T06:57:36.732Z,15.54
2017-05-16T06:58:52.113Z,15.6
2017-05-16T07:00:07.464Z,15.57
2017-05-16T07:01:21.829Z,15.55
2017-05-16T07:02:35.926Z,15.55
2017-05-16T07:03:50.053Z,15.61
2017-05-16T07:05:05.407Z,15.54
2017-05-16T07:06:51.840Z,15.58
2017-05-16T07:08:05.909Z,15.68
2017-05-16T07:09:21.314Z,15.6
2017-05-16T07:10:33.991Z,15.68
2017-05-16T07:11:46.837Z,15.68
2017-05-16T07:13:00.951Z,15.75
2017-05-16T07:14:13.973Z,15.89
2017-05-16T07:15:27.929Z,15.98
2017-05-16T07:16:41.985Z,16.02
2017-05-16T07:17:54.878Z,16.16
2017-05-16T07:19:10.260Z,16.17
2017-05-16T07:20:25.599Z,16.32
2017-05-16T07:21:38.428Z,16.29
2017-05-16T07:22:54.108Z,16.34
2017-05-16T07:24:09.458Z,16.29
2017-05-16T07:25:24.810Z,16.44
2017-05-16T07:26:40.458Z,16.47
2017-05-16T07:27:56.058Z,16.51
2017-05-16T07:29:11.550Z,16.69
2017-05-16T07:30:25.627Z,16.75
2017-05-16T07:31:40.968Z,16.8
2017-05-16T07:32:56.542Z,16.74
2017-05-16T07:34:11.987Z,16.69
2017-05-16T07:35:27.338Z,16.69
2017-05-16T07:36:42.699Z,16.83
2017-05-16T07:37:56.991Z,16.84
2017-05-16T07:39:09.773Z,16.91
2017-05-16T07:40:25.290Z,17.02
2017-05-16T07:41:40.879Z,16.99
2017-05-16T07:42:55.164Z,17.02
2017-05-16T07:44:09.219Z,17.09
2017-05-16T07:45:21.994Z,17.2
2017-05-16T07:46:36.063Z,17.27
2017-05-16T07:47:48.873Z,17.3
2017-05-16T07:49:03.249Z,17.36
2017-05-16T07:50:17.349Z,17.43
2017-05-16T07:52:02.334Z,17.61
2017-05-16T07:53:16.508Z,17.64
2017-05-16T07:54:31.838Z,17.79
2017-05-16T07:55:47.208Z,17.68
2017-05-16T07:57:01.146Z,17.85
2017-05-16T07:58:16.783Z,17.91
2017-05-16T07:59:32.142Z,17.95
2017-05-16T08:00:47.513Z,17.98
2017-05-16T08:02:02.490Z,18.07
2017-05-16T08:03:18.109Z,18.23
2017-05-16T08:04:33.514Z,18.38
2017-05-16T08:05:48.882Z,18.37
2017-05-16T08:07:01.536Z,18.38
2017-05-16T08:08:17.128Z,18.5
2017-05-16T08:09:31.060Z,18.44
2017-05-16T08:10:45.344Z,18.52
2017-05-16T08:12:00.737Z,18.53
2017-05-16T08:13:16.096Z,18.52
2017-05-16T08:14:31.655Z,18.6
2017-05-16T08:15:47.012Z,18.67
2017-05-16T08:17:01.227Z,18.93
2017-05-16T08:18:15.170Z,18.87
2017-05-16T08:19:30.761Z,18.93
2017-05-16T08:20:46.153Z,19
2017-05-16T08:22:01.492Z,18.95
2017-05-16T08:23:16.847Z,19.02
2017-05-16T08:24:31.120Z,19.09
2017-05-16T08:25:45.658Z,18.97
2017-05-16T08:27:01.037Z,19.05
2017-05-16T08:28:13.722Z,19.03
2017-05-16T08:29:26.913Z,18.97
2017-05-16T08:30:42.309Z,18.9
2017-05-16T08:31:56.363Z,18.67
2017-05-16T08:33:11.708Z,18.53
2017-05-16T08:34:27.286Z,18.46
2017-05-16T08:35:42.755Z,18.28
2017-05-16T08:36:56.828Z,18.34
2017-05-16T08:38:12.257Z,18.17
2017-05-16T08:39:26.556Z,18.01
2017-05-16T08:40:41.948Z,17.87
2017-05-16T08:41:57.277Z,17.75
2017-05-16T08:43:11.303Z,17.76
2017-05-16T08:44:23.946Z,17.77
2017-05-16T08:45:38.510Z,17.7
2017-05-16T08:46:51.283Z,17.65
2017-05-16T08:48:05.345Z,17.57
2017-05-16T08:49:20.707Z,17.54
2017-05-16T08:50:34.841Z,17.46
2017-05-16T08:51:50.214Z,17.35
2017-05-16T08:53:05.259Z,17.23
2017-05-16T08:54:20.672Z,17.19
2017-05-16T08:55:36.223Z,17.08
2017-05-16T08:56:50.548Z,17.02
2017-05-16T08:58:05.880Z,17.08
2017-05-16T08:59:19.956Z,17.11
2017-05-16T09:00:34.443Z,17.01
2017-05-16T09:01:49.842Z,17.09
2017-05-16T09:03:05.196Z,17.09
2017-05-16T09:04:20.549Z,17.01
2017-05-16T09:05:36.301Z,17.11
2017-05-16T09:06:52.054Z,17.09
2017-05-16T09:08:07.403Z,17.28
2017-05-16T09:09:20.047Z,17.39
2017-05-16T09:10:34.008Z,17.46
2017-05-16T09:11:46.988Z,17.64
2017-05-16T09:13:02.562Z,17.68
2017-05-16T09:14:17.918Z,17.82
2017-05-16T09:15:31.969Z,17.98
2017-05-16T09:16:47.515Z,18.28
2017-05-16T09:18:01.618Z,18.41
2017-05-16T09:19:17.008Z,18.57
2017-05-16T09:20:32.403Z,18.73
2017-05-16T09:21:48.199Z,18.93
2017-05-16T09:23:02.265Z,19.09
2017-05-16T09:24:16.359Z,19.18
2017-05-16T09:25:30.435Z,19.3
2017-05-16T09:26:44.606Z,19.39
2017-05-16T09:27:58.769Z,19.35
2017-05-16T09:29:14.178Z,19.56
2017-05-16T09:30:29.583Z,19.63
2017-05-16T09:31:42.570Z,19.65
2017-05-16T09:32:57.903Z,19.49
2017-05-16T09:34:13.364Z,19.58
2017-05-16T09:35:28.362Z,19.64
2017-05-16T09:36:44.027Z,19.73
2017-05-16T09:37:59.532Z,19.82
2017-05-16T09:39:13.602Z,19.9
2017-05-16T09:40:28.975Z,19.93
2017-05-16T09:41:44.655Z,20.05
2017-05-16T09:43:00.071Z,20.19
2017-05-16T09:44:12.711Z,20.21
2017-05-16T09:45:59.024Z,20.23
2017-05-16T09:47:14.984Z,20.19
2017-05-16T09:48:30.421Z,20.14
2017-05-16T09:49:44.485Z,20.11
2017-05-16T09:50:59.822Z,20.04
2017-05-16T09:52:14.141Z,20.01
2017-05-16T09:53:29.508Z,19.97
2017-05-16T09:54:43.572Z,20.05
2017-05-16T09:55:57.672Z,20.03
2017-05-16T09:57:10.438Z,19.97
2017-05-16T09:58:26.027Z,19.9
2017-05-16T09:59:41.606Z,19.83
2017-05-16T10:00:56.960Z,19.88
2017-05-16T10:02:11.084Z,19.79
2017-05-16T10:03:25.339Z,19.67
2017-05-16T10:04:39.270Z,19.61
2017-05-16T10:05:54.697Z,19.5
2017-05-16T10:07:10.180Z,19.48
2017-05-16T10:08:25.734Z,19.48
2017-05-16T10:09:41.130Z,19.39
2017-05-16T10:10:55.492Z,19.31
2017-05-16T10:12:09.673Z,19.25
2017-05-16T10:13:22.558Z,19.18
2017-05-16T10:14:36.703Z,19.19
2017-05-16T10:15:50.997Z,19.1
2017-05-16T10:17:06.395Z,19.08
2017-05-16T10:18:22.012Z,19.12
2017-05-16T10:19:37.141Z,19.09
2017-05-16T10:20:49.904Z,19.09
2017-05-16T10:22:05.258Z,19.03
2017-05-16T10:23:20.844Z,19.08
2017-05-16T10:24:34.921Z,19.06
2017-05-16T10:25:48.969Z,19.12
2017-05-16T10:27:03.081Z,19.03
2017-05-16T10:28:18.444Z,19.15
2017-05-16T10:29:33.739Z,19.09
2017-05-16T10:30:47.806Z,19.15
2017-05-16T10:32:01.734Z,19.1
2017-05-16T10:33:17.108Z,19.13
2017-05-16T10:34:31.478Z,19.12
2017-05-16T10:36:53.104Z,19.1
2017-05-16T10:38:08.511Z,19.21
2017-05-16T10:39:21.529Z,19.13
2017-05-16T10:40:35.731Z,19.13
2017-05-16T10:41:51.077Z,19.19
2017-05-16T10:43:06.499Z,19.24
2017-05-16T10:44:22.165Z,19.3
2017-05-16T10:45:37.144Z,19.3
2017-05-16T10:46:52.750Z,19.31
2017-05-16T10:48:06.852Z,19.33
2017-05-16T10:49:22.518Z,19.4
2017-05-16T10:50:36.723Z,19.35
2017-05-16T10:51:50.774Z,19.5
2017-05-16T10:53:04.708Z,19.56
2017-05-16T10:54:17.372Z,19.55
2017-05-16T10:55:33.050Z,19.61
2017-05-16T10:56:47.103Z,19.67
2017-05-16T10:58:01.256Z,19.85
2017-05-16T10:59:16.688Z,19.9
2017-05-16T11:00:32.241Z,19.93
2017-05-16T11:01:47.596Z,20.16
2017-05-16T11:03:01.663Z,20.24
2017-05-16T11:04:15.712Z,20.31
2017-05-16T11:06:02.129Z,20.43
2017-05-16T11:07:16.233Z,20.39
2017-05-16T11:08:31.585Z,20.49
2017-05-16T11:09:45.661Z,20.49
2017-05-16T11:11:01.277Z,20.56
2017-05-16T11:12:16.688Z,20.56
2017-05-16T11:13:32.050Z,20.6
2017-05-16T11:14:46.231Z,20.73
2017-05-16T11:16:01.996Z,20.83
2017-05-16T11:17:17.327Z,20.85
2017-05-16T11:18:32.699Z,20.94
2017-05-16T11:19:46.762Z,20.94
2017-05-16T11:21:02.373Z,20.94
2017-05-16T11:22:17.737Z,20.93
2017-05-16T11:23:33.173Z,21.1
2017-05-16T11:24:48.521Z,21.15
2017-05-16T11:26:04.061Z,21.13
2017-05-16T11:27:19.414Z,21.09
2017-05-16T11:28:34.754Z,21.12
2017-05-16T11:29:50.110Z,21.12
2017-05-16T11:31:05.736Z,21.12
2017-05-16T11:32:21.075Z,21.09
2017-05-16T11:33:35.196Z,21.12
2017-05-16T11:34:50.627Z,20.86
2017-05-16T11:36:06.559Z,20.78
2017-05-16T11:37:21.918Z,20.51
2017-05-16T11:38:37.364Z,20.48
2017-05-16T11:39:51.692Z,20.27
2017-05-16T11:41:05.830Z,20.27
2017-05-16T11:42:21.217Z,20.12
2017-05-16T11:43:35.286Z,20.08
2017-05-16T11:44:49.241Z,20.07
2017-05-16T11:46:04.839Z,20.04
2017-05-16T11:47:18.774Z,20.04
2017-05-16T11:48:33.129Z,19.97
2017-05-16T11:49:48.733Z,20.01
2017-05-16T11:51:02.939Z,20.03
2017-05-16T11:52:16.985Z,20.04
2017-05-16T11:53:30.912Z,19.98
2017-05-16T11:54:46.288Z,20.04
2017-05-16T11:56:00.357Z,19.97
2017-05-16T11:57:16.018Z,19.93
2017-05-16T11:58:31.363Z,19.92
2017-05-16T11:59:46.771Z,19.93
2017-05-16T12:01:01.122Z,19.98
2017-05-16T12:02:16.731Z,20
2017-05-16T12:03:32.155Z,19.98
2017-05-16T12:04:44.940Z,20
2017-05-16T12:06:00.299Z,19.98
2017-05-16T12:07:14.653Z,19.98
2017-05-16T12:08:30.005Z,20.12
2017-05-16T12:09:45.356Z,20.17
2017-05-16T12:10:59.438Z,20.26
2017-05-16T12:12:12.658Z,20.2
2017-05-16T12:13:28.019Z,20.3
2017-05-16T12:14:42.099Z,20.39
2017-05-16T12:15:57.465Z,20.54
2017-05-16T12:17:13.054Z,20.63
2017-05-16T12:18:25.833Z,20.75
2017-05-16T12:19:41.206Z,20.98
2017-05-16T12:20:55.265Z,21.08
2017-05-16T12:22:08.488Z,21.19
2017-05-16T12:23:21.156Z,21.34
2017-05-16T12:24:32.556Z,21.35
2017-05-16T12:25:47.941Z,21.35
2017-05-16T12:27:02.044Z,21.4
2017-05-16T12:28:17.864Z,21.57
2017-05-16T12:29:33.235Z,21.53
2017-05-16T12:30:47.162Z,21.48
2017-05-16T12:32:02.380Z,21.43
2017-05-16T12:33:17.944Z,21.46
2017-05-16T12:34:33.415Z,21.33
2017-05-16T12:35:49.041Z,21.34
2017-05-16T12:37:01.789Z,21.22
2017-05-16T12:38:17.208Z,21.22
2017-05-16T12:39:32.552Z,21.09
2017-05-16T12:40:47.905Z,21.09
2017-05-16T12:42:03.256Z,20.86
2017-05-16T12:43:18.480Z,20.85
2017-05-16T12:44:33.840Z,20.79
2017-05-16T12:45:49.227Z,20.79
2017-05-16T12:47:04.588Z,20.78
2017-05-16T12:48:20.154Z,20.73
2017-05-16T12:49:35.643Z,20.61
2017-05-16T12:50:51.190Z,20.67
2017-05-16T12:52:06.657Z,20.66
2017-05-16T12:53:22.286Z,20.57
2017-05-16T12:54:37.889Z,20.58
2017-05-16T12:55:51.812Z,20.48
2017-05-16T12:57:05.888Z,20.57
2017-05-16T12:58:21.444Z,20.48
2017-05-16T12:59:36.841Z,20.57
2017-05-16T13:00:52.474Z,20.56
2017-05-16T13:02:07.824Z,20.51
2017-05-16T13:03:21.800Z,20.53
2017-05-16T13:04:37.202Z,20.45
2017-05-16T13:05:52.572Z,20.42
2017-05-16T13:07:07.932Z,20.45
2017-05-16T13:08:23.740Z,20.42
2017-05-16T13:09:37.786Z,20.38
2017-05-16T13:10:53.140Z,20.41
2017-05-16T13:12:08.549Z,20.3
2017-05-16T13:13:24.098Z,20.34
2017-05-16T13:14:38.160Z,20.28
2017-05-16T13:15:53.608Z,20.27
2017-05-16T13:17:08.594Z,20.2
2017-05-16T13:18:22.943Z,20.21
2017-05-16T13:19:35.563Z,20.24
2017-05-16T13:20:50.903Z,20.26
2017-05-16T13:22:03.739Z,20.2
2017-05-16T13:23:17.688Z,20.14
2017-05-16T13:24:32.180Z,20.11
2017-05-16T13:25:46.102Z,20.21
2017-05-16T13:27:00.079Z,20.28
2017-05-16T13:28:12.711Z,20.2
2017-05-16T13:29:28.285Z,20.2
2017-05-16T13:30:43.634Z,20.17
2017-05-16T13:31:58.998Z,20.28
2017-05-16T13:33:11.966Z,20.27
2017-05-16T13:34:26.292Z,20.26
2017-05-16T13:35:41.664Z,20.34
2017-05-16T13:36:57.049Z,20.3
2017-05-16T13:38:12.662Z,20.28
2017-05-16T13:39:28.227Z,20.3
2017-05-16T13:40:43.669Z,20.3
2017-05-16T13:41:57.712Z,20.36
2017-05-16T13:43:13.071Z,20.38
2017-05-16T13:44:28.620Z,20.38
2017-05-16T13:45:44.125Z,20.35
2017-05-16T13:46:59.170Z,20.34
2017-05-16T13:48:11.973Z,20.41
2017-05-16T13:49:27.574Z,20.46
2017-05-16T13:50:42.959Z,20.46
2017-05-16T13:51:58.370Z,20.42
2017-05-16T13:53:12.449Z,20.46
2017-05-16T13:54:28.141Z,20.45
2017-05-16T13:55:43.503Z,20.46
2017-05-16T13:56:58.892Z,20.46
2017-05-16T13:58:14.263Z,20.54
2017-05-16T13:59:28.537Z,20.43
2017-05-16T14:00:43.937Z,20.48
2017-05-16T14:01:59.301Z,20.49
2017-05-16T14:03:12.091Z,20.48
2017-05-16T14:04:26.220Z,20.36
2017-05-16T14:05:40.641Z,20.39
2017-05-16T14:06:56.011Z,20.34
2017-05-16T14:08:09.784Z,20.35
2017-05-16T14:09:25.202Z,20.38
2017-05-16T14:10:40.845Z,20.28
2017-05-16T14:11:56.191Z,20.3
2017-05-16T14:13:11.566Z,20.2
2017-05-16T14:14:26.920Z,20.05
2017-05-16T14:15:42.509Z,20.12
2017-05-16T14:16:58.128Z,20.16
2017-05-16T14:18:13.557Z,20.07
2017-05-16T14:19:28.917Z,20.01
2017-05-16T14:20:41.884Z,20.03
2017-05-16T14:21:57.283Z,20
2017-05-16T14:23:12.723Z,19.92
2017-05-16T14:24:26.799Z,19.85
2017-05-16T14:25:42.192Z,19.8
2017-05-16T14:26:57.603Z,19.83
2017-05-16T14:28:13.010Z,19.79
2017-05-16T14:29:28.390Z,19.71
2017-05-16T14:30:44.107Z,19.78
2017-05-16T14:31:58.206Z,19.76
2017-05-16T14:33:13.586Z,19.76
2017-05-16T14:34:28.975Z,19.73
2017-05-16T14:35:44.549Z,19.76
2017-05-16T14:36:59.915Z,19.68
2017-05-16T14:38:46.200Z,19.78
2017-05-16T14:40:00.256Z,19.71
2017-05-16T14:41:15.832Z,19.74
2017-05-16T14:42:29.979Z,19.71
2017-05-16T14:43:44.318Z,19.74
2017-05-16T14:44:58.566Z,19.7
2017-05-16T14:46:12.749Z,19.65
2017-05-16T14:47:28.123Z,19.61
2017-05-16T14:48:42.290Z,19.65
2017-05-16T14:49:56.399Z,19.65
2017-05-16T14:51:12.188Z,19.64
2017-05-16T14:52:27.544Z,19.65
2017-05-16T14:53:42.923Z,19.65
2017-05-16T14:54:58.314Z,19.65
2017-05-16T14:56:13.931Z,19.58
2017-05-16T14:57:29.349Z,19.55
2017-05-16T14:58:44.714Z,19.58
2017-05-16T14:59:58.690Z,19.48
2017-05-16T15:01:12.786Z,19.55
2017-05-16T15:02:28.379Z,19.55
2017-05-16T15:03:43.789Z,19.48
2017-05-16T15:04:59.143Z,19.48
2017-05-16T15:06:13.202Z,19.55
2017-05-16T15:07:28.825Z,19.46
2017-05-16T15:08:44.194Z,19.53
2017-05-16T15:09:58.147Z,19.55
2017-05-16T15:11:13.517Z,19.5
2017-05-16T15:12:27.816Z,19.5
2017-05-16T15:13:43.176Z,19.49
2017-05-16T15:14:55.822Z,19.53
2017-05-16T15:16:10.106Z,19.6
2017-05-16T15:17:25.755Z,19.55
2017-05-16T15:19:11.837Z,19.52
2017-05-16T15:20:26.006Z,19.6
2017-05-16T15:21:41.430Z,19.61
2017-05-16T15:22:55.729Z,19.58
2017-05-16T15:24:11.462Z,19.56
2017-05-16T15:25:26.842Z,19.52
2017-05-16T15:26:42.208Z,19.55
2017-05-16T15:27:57.899Z,19.53
2017-05-16T15:29:11.637Z,19.6
2017-05-16T15:30:26.989Z,19.55
2017-05-16T15:31:42.336Z,19.55
2017-05-16T15:32:57.929Z,19.6
2017-05-16T15:34:13.304Z,19.56
2017-05-16T15:35:26.098Z,19.46
2017-05-16T15:36:41.128Z,19.5
2017-05-16T15:37:56.742Z,19.49
2017-05-16T15:39:12.115Z,19.45
2017-05-16T15:40:27.522Z,19.42
2017-05-16T15:41:42.871Z,19.39
2017-05-16T15:42:55.529Z,19.39
2017-05-16T15:44:09.603Z,19.3
2017-05-16T15:45:24.967Z,19.27
2017-05-16T15:46:40.453Z,19.28
2017-05-16T15:47:56.061Z,19.28
2017-05-16T15:49:11.483Z,19.24
2017-05-16T15:50:26.871Z,19.13
2017-05-16T15:51:42.220Z,19.16
2017-05-16T15:52:56.487Z,19.18
2017-05-16T15:54:09.284Z,19.03
2017-05-16T15:55:24.719Z,19.06
2017-05-16T15:56:40.177Z,19.1
2017-05-16T15:57:55.534Z,19
2017-05-16T15:59:09.816Z,19
2017-05-16T16:00:25.165Z,19.06
2017-05-16T16:01:40.716Z,19.08
2017-05-16T16:02:56.096Z,19.03
2017-05-16T16:04:10.369Z,18.94
2017-05-16T16:05:25.745Z,18.95
2017-05-16T16:06:41.128Z,18.95
2017-05-16T16:07:56.537Z,18.95
2017-05-16T16:09:12.226Z,19.02
2017-05-16T16:10:27.637Z,18.98
2017-05-16T16:11:41.757Z,18.97